Danville, Missouri
Current Conditions -  °F | °C
As of 8:35 PM on Wednesday 17 Dec 2014 (Local Time) from KFYG Reporting Station
Overcast Overcast  
Wind Chill: 30°   Ceiling: 9000
Heat Index: 34°   Visibility: 10mi
Dew Point: 27°   Wind: 5mph
Humidity: 75%   Direction: 20°NNE
Pressure: 30.29"   Gusts: NA
Location:  39.0022°N, 91.5066°W
Report Text: KFYG 180235Z AUTO 02004KT 10SM OVC090 01/M03 A3029 RMK AO2
Loading
Personal Weather Stations






























Interactive Weather Map New forecast layout! Learn more

10-Day Weather Forecast

Advertisements
Track Severe Weather on mobile